sensor_id;sensor_type;location;lat;lon;timestamp;temperature;humidity
76789;DHT22;65740;52.464;13.446;2023-01-16T00:02:00;17.60;44.00
76789;DHT22;65740;52.464;13.446;2023-01-16T00:04:27;17.60;44.00
76789;DHT22;65740;52.464;13.446;2023-01-16T00:06:53;17.50;43.90
76789;DHT22;65740;52.464;13.446;2023-01-16T00:09:19;17.60;44.10
76789;DHT22;65740;52.464;13.446;2023-01-16T00:11:45;17.50;43.80
76789;DHT22;65740;52.464;13.446;2023-01-16T00:14:11;17.50;43.90
76789;DHT22;65740;52.464;13.446;2023-01-16T00:16:37;17.50;43.90
76789;DHT22;65740;52.464;13.446;2023-01-16T00:19:03;17.60;43.90
76789;DHT22;65740;52.464;13.446;2023-01-16T00:21:29;17.60;44.10
76789;DHT22;65740;52.464;13.446;2023-01-16T00:23:58;17.60;43.90
76789;DHT22;65740;52.464;13.446;2023-01-16T00:26:25;17.60;43.80
76789;DHT22;65740;52.464;13.446;2023-01-16T00:28:50;17.50;43.80
76789;DHT22;65740;52.464;13.446;2023-01-16T00:31:16;17.60;43.90
76789;DHT22;65740;52.464;13.446;2023-01-16T00:33:42;17.60;43.90
76789;DHT22;65740;52.464;13.446;2023-01-16T00:36:09;17.60;43.90
76789;DHT22;65740;52.464;13.446;2023-01-16T00:38:35;17.60;44.00
76789;DHT22;65740;52.464;13.446;2023-01-16T00:41:01;17.50;43.80
76789;DHT22;65740;52.464;13.446;2023-01-16T00:43:26;17.60;43.90
76789;DHT22;65740;52.464;13.446;2023-01-16T00:45:52;17.60;44.10
76789;DHT22;65740;52.464;13.446;2023-01-16T00:48:17;17.60;44.00
76789;DHT22;65740;52.464;13.446;2023-01-16T00:50:43;17.60;43.90
76789;DHT22;65740;52.464;13.446;2023-01-16T00:53:09;17.50;43.80
76789;DHT22;65740;52.464;13.446;2023-01-16T00:55:35;17.50;43.80
76789;DHT22;65740;52.464;13.446;2023-01-16T00:58:02;17.50;43.70
76789;DHT22;65740;52.464;13.446;2023-01-16T01:00:28;17.60;43.90
76789;DHT22;65740;52.464;13.446;2023-01-16T01:02:54;17.50;43.70
76789;DHT22;65740;52.464;13.446;2023-01-16T01:05:20;17.50;43.90
76789;DHT22;65740;52.464;13.446;2023-01-16T01:07:46;17.50;43.80
76789;DHT22;65740;52.464;13.446;2023-01-16T01:10:11;17.50;43.80
76789;DHT22;65740;52.464;13.446;2023-01-16T01:12:37;17.50;43.80
76789;DHT22;65740;52.464;13.446;2023-01-16T01:15:03;17.50;43.80
76789;DHT22;65740;52.464;13.446;2023-01-16T01:17:29;17.50;43.80
76789;DHT22;65740;52.464;13.446;2023-01-16T01:19:54;17.50;43.80
76789;DHT22;65740;52.464;13.446;2023-01-16T01:22:20;17.50;44.50
76789;DHT22;65740;52.464;13.446;2023-01-16T01:24:49;17.50;43.80
76789;DHT22;65740;52.464;13.446;2023-01-16T01:27:15;17.50;43.70
76789;DHT22;65740;52.464;13.446;2023-01-16T01:29:41;17.50;43.70
76789;DHT22;65740;52.464;13.446;2023-01-16T01:32:07;17.50;43.80
76789;DHT22;65740;52.464;13.446;2023-01-16T01:34:33;17.50;43.70
76789;DHT22;65740;52.464;13.446;2023-01-16T01:37:04;17.50;43.70
76789;DHT22;65740;52.464;13.446;2023-01-16T01:39:30;17.50;43.70
76789;DHT22;65740;52.464;13.446;2023-01-16T01:41:57;17.50;43.70
76789;DHT22;65740;52.464;13.446;2023-01-16T01:47:17;17.50;43.70
76789;DHT22;65740;52.464;13.446;2023-01-16T01:49:46;17.50;43.80
76789;DHT22;65740;52.464;13.446;2023-01-16T01:52:12;17.50;43.70
76789;DHT22;65740;52.464;13.446;2023-01-16T01:54:43;17.50;43.70
76789;DHT22;65740;52.464;13.446;2023-01-16T01:57:21;17.50;43.70
76789;DHT22;65740;52.464;13.446;2023-01-16T02:00:03;17.50;43.70
76789;DHT22;65740;52.464;13.446;2023-01-16T02:02:32;17.50;43.90
76789;DHT22;65740;52.464;13.446;2023-01-16T02:04:59;17.50;43.70
76789;DHT22;65740;52.464;13.446;2023-01-16T02:07:27;17.50;43.80
76789;DHT22;65740;52.464;13.446;2023-01-16T02:10:08;17.50;43.70
76789;DHT22;65740;52.464;13.446;2023-01-16T02:12:35;17.50;43.70
76789;DHT22;65740;52.464;13.446;2023-01-16T02:15:01;17.50;43.80
76789;DHT22;65740;52.464;13.446;2023-01-16T02:17:27;17.50;43.70
76789;DHT22;65740;52.464;13.446;2023-01-16T02:20:21;17.50;43.80
76789;DHT22;65740;52.464;13.446;2023-01-16T02:31:43;17.50;43.70
76789;DHT22;65740;52.464;13.446;2023-01-16T02:34:21;17.50;43.70
76789;DHT22;65740;52.464;13.446;2023-01-16T02:40:05;17.50;43.70
76789;DHT22;65740;52.464;13.446;2023-01-16T02:45:29;17.50;43.70
76789;DHT22;65740;52.464;13.446;2023-01-16T02:55:50;17.50;43.60
76789;DHT22;65740;52.464;13.446;2023-01-16T02:58:18;17.60;43.60
76789;DHT22;65740;52.464;13.446;2023-01-16T03:00:50;17.50;43.50
76789;DHT22;65740;52.464;13.446;2023-01-16T03:15:03;17.60;43.50
76789;DHT22;65740;52.464;13.446;2023-01-16T03:23:04;17.60;43.30
76789;DHT22;65740;52.464;13.446;2023-01-16T03:25:39;17.60;43.40
76789;DHT22;65740;52.464;13.446;2023-01-16T03:31:18;17.60;43.40
76789;DHT22;65740;52.464;13.446;2023-01-16T03:36:52;17.60;43.50
76789;DHT22;65740;52.464;13.446;2023-01-16T03:39:29;17.60;43.30
76789;DHT22;65740;52.464;13.446;2023-01-16T03:42:01;17.60;43.30
76789;DHT22;65740;52.464;13.446;2023-01-16T03:44:34;17.60;43.40
76789;DHT22;65740;52.464;13.446;2023-01-16T03:47:01;17.60;43.50
76789;DHT22;65740;52.464;13.446;2023-01-16T03:49:32;17.60;43.40
76789;DHT22;65740;52.464;13.446;2023-01-16T03:52:02;17.60;43.50
76789;DHT22;65740;52.464;13.446;2023-01-16T03:57:15;17.50;43.20
76789;DHT22;65740;52.464;13.446;2023-01-16T03:59:45;17.60;43.30
76789;DHT22;65740;52.464;13.446;2023-01-16T04:02:17;17.60;43.40
76789;DHT22;65740;52.464;13.446;2023-01-16T04:07:41;17.60;43.30
76789;DHT22;65740;52.464;13.446;2023-01-16T04:10:15;17.60;43.30
76789;DHT22;65740;52.464;13.446;2023-01-16T04:12:45;17.50;43.30
76789;DHT22;65740;52.464;13.446;2023-01-16T04:15:12;17.50;43.40
76789;DHT22;65740;52.464;13.446;2023-01-16T04:17:39;17.50;43.40
76789;DHT22;65740;52.464;13.446;2023-01-16T04:20:05;17.60;43.40
76789;DHT22;65740;52.464;13.446;2023-01-16T04:22:31;17.50;43.40
76789;DHT22;65740;52.464;13.446;2023-01-16T04:24:59;17.60;43.40
76789;DHT22;65740;52.464;13.446;2023-01-16T04:27:26;17.50;43.20
76789;DHT22;65740;52.464;13.446;2023-01-16T04:29:52;17.50;43.90
76789;DHT22;65740;52.464;13.446;2023-01-16T04:32:18;17.60;43.40
76789;DHT22;65740;52.464;13.446;2023-01-16T04:34:43;17.50;43.40
76789;DHT22;65740;52.464;13.446;2023-01-16T04:37:13;17.60;43.40
76789;DHT22;65740;52.464;13.446;2023-01-16T04:39:39;17.50;43.30
76789;DHT22;65740;52.464;13.446;2023-01-16T04:42:06;17.50;43.30
76789;DHT22;65740;52.464;13.446;2023-01-16T04:44:32;17.50;43.30
76789;DHT22;65740;52.464;13.446;2023-01-16T04:46:57;17.60;43.40
76789;DHT22;65740;52.464;13.446;2023-01-16T04:49:23;17.60;43.30
76789;DHT22;65740;52.464;13.446;2023-01-16T04:51:48;17.60;43.30
76789;DHT22;65740;52.464;13.446;2023-01-16T04:54:16;17.50;43.20
76789;DHT22;65740;52.464;13.446;2023-01-16T04:56:41;17.50;43.30
76789;DHT22;65740;52.464;13.446;2023-01-16T04:59:08;17.60;43.30
76789;DHT22;65740;52.464;13.446;2023-01-16T05:01:33;17.50;43.30
76789;DHT22;65740;52.464;13.446;2023-01-16T05:04:07;17.50;43.30
76789;DHT22;65740;52.464;13.446;2023-01-16T05:06:33;17.50;43.30
76789;DHT22;65740;52.464;13.446;2023-01-16T05:08:59;17.50;43.30
76789;DHT22;65740;52.464;13.446;2023-01-16T05:11:25;17.50;43.20
76789;DHT22;65740;52.464;13.446;2023-01-16T05:13:51;17.60;43.30
76789;DHT22;65740;52.464;13.446;2023-01-16T05:16:17;17.50;43.30
76789;DHT22;65740;52.464;13.446;2023-01-16T05:18:42;17.50;43.20
76789;DHT22;65740;52.464;13.446;2023-01-16T05:21:08;17.50;43.10
76789;DHT22;65740;52.464;13.446;2023-01-16T05:23:34;17.50;43.20
76789;DHT22;65740;52.464;13.446;2023-01-16T05:26:01;17.60;43.20
76789;DHT22;65740;52.464;13.446;2023-01-16T05:28:27;17.50;43.30
76789;DHT22;65740;52.464;13.446;2023-01-16T05:30:52;17.50;43.20
76789;DHT22;65740;52.464;13.446;2023-01-16T05:33:18;17.60;43.40
76789;DHT22;65740;52.464;13.446;2023-01-16T05:35:45;17.60;43.30
76789;DHT22;65740;52.464;13.446;2023-01-16T05:38:11;17.50;43.10
76789;DHT22;65740;52.464;13.446;2023-01-16T05:40:36;17.50;43.20
76789;DHT22;65740;52.464;13.446;2023-01-16T05:43:02;17.50;43.10
76789;DHT22;65740;52.464;13.446;2023-01-16T05:45:28;17.60;43.10
76789;DHT22;65740;52.464;13.446;2023-01-16T05:47:53;17.60;43.80
76789;DHT22;65740;52.464;13.446;2023-01-16T05:50:19;17.50;43.20
76789;DHT22;65740;52.464;13.446;2023-01-16T05:52:45;17.60;43.10
76789;DHT22;65740;52.464;13.446;2023-01-16T05:55:10;17.50;43.10
76789;DHT22;65740;52.464;13.446;2023-01-16T05:57:36;17.60;43.10
76789;DHT22;65740;52.464;13.446;2023-01-16T06:00:03;17.50;43.10
76789;DHT22;65740;52.464;13.446;2023-01-16T06:02:28;17.60;43.10
76789;DHT22;65740;52.464;13.446;2023-01-16T06:04:54;17.60;43.20
76789;DHT22;65740;52.464;13.446;2023-01-16T06:07:21;17.60;43.20
76789;DHT22;65740;52.464;13.446;2023-01-16T06:09:46;17.60;43.10
76789;DHT22;65740;52.464;13.446;2023-01-16T06:12:16;17.50;43.00
76789;DHT22;65740;52.464;13.446;2023-01-16T06:14:42;17.60;43.10
76789;DHT22;65740;52.464;13.446;2023-01-16T06:17:08;17.60;43.20
76789;DHT22;65740;52.464;13.446;2023-01-16T06:19:34;17.50;43.10
76789;DHT22;65740;52.464;13.446;2023-01-16T06:22:00;17.60;43.20
76789;DHT22;65740;52.464;13.446;2023-01-16T06:24:25;17.60;43.10
76789;DHT22;65740;52.464;13.446;2023-01-16T06:26:51;17.50;43.00
76789;DHT22;65740;52.464;13.446;2023-01-16T06:29:16;17.50;43.10
76789;DHT22;65740;52.464;13.446;2023-01-16T06:31:42;17.50;43.00
76789;DHT22;65740;52.464;13.446;2023-01-16T06:34:08;17.50;43.00
76789;DHT22;65740;52.464;13.446;2023-01-16T06:36:33;17.50;43.00
76789;DHT22;65740;52.464;13.446;2023-01-16T06:38:59;17.50;43.00
76789;DHT22;65740;52.464;13.446;2023-01-16T06:41:25;17.50;43.10
76789;DHT22;65740;52.464;13.446;2023-01-16T06:43:50;17.50;43.00
76789;DHT22;65740;52.464;13.446;2023-01-16T06:46:16;17.50;43.00
76789;DHT22;65740;52.464;13.446;2023-01-16T06:48:42;17.50;43.00
76789;DHT22;65740;52.464;13.446;2023-01-16T06:51:08;17.50;43.00
76789;DHT22;65740;52.464;13.446;2023-01-16T06:53:35;17.50;43.00
76789;DHT22;65740;52.464;13.446;2023-01-16T06:56:01;17.50;43.70
76789;DHT22;65740;52.464;13.446;2023-01-16T06:58:27;17.50;43.10
76789;DHT22;65740;52.464;13.446;2023-01-16T07:00:52;17.50;43.00
76789;DHT22;65740;52.464;13.446;2023-01-16T07:03:20;17.50;43.00
76789;DHT22;65740;52.464;13.446;2023-01-16T07:05:46;17.50;43.00
76789;DHT22;65740;52.464;13.446;2023-01-16T07:08:12;17.50;43.00
76789;DHT22;65740;52.464;13.446;2023-01-16T07:10:38;17.50;43.10
76789;DHT22;65740;52.464;13.446;2023-01-16T07:13:04;17.50;43.10
76789;DHT22;65740;52.464;13.446;2023-01-16T07:15:30;17.50;42.90
76789;DHT22;65740;52.464;13.446;2023-01-16T07:18:16;17.50;43.00
76789;DHT22;65740;52.464;13.446;2023-01-16T07:21:03;17.50;43.70
76789;DHT22;65740;52.464;13.446;2023-01-16T07:24:04;17.50;43.10
76789;DHT22;65740;52.464;13.446;2023-01-16T07:26:32;17.50;43.10
76789;DHT22;65740;52.464;13.446;2023-01-16T07:28:59;17.50;43.20
76789;DHT22;65740;52.464;13.446;2023-01-16T07:31:25;17.50;43.10
76789;DHT22;65740;52.464;13.446;2023-01-16T07:33:51;17.50;43.20
76789;DHT22;65740;52.464;13.446;2023-01-16T07:36:17;17.50;43.20
76789;DHT22;65740;52.464;13.446;2023-01-16T07:38:42;17.50;43.20
76789;DHT22;65740;52.464;13.446;2023-01-16T07:41:08;17.50;43.20
76789;DHT22;65740;52.464;13.446;2023-01-16T07:43:34;17.60;43.90
76789;DHT22;65740;52.464;13.446;2023-01-16T07:45:59;17.60;43.20
76789;DHT22;65740;52.464;13.446;2023-01-16T07:48:25;17.60;43.20
76789;DHT22;65740;52.464;13.446;2023-01-16T07:50:53;17.60;43.30
76789;DHT22;65740;52.464;13.446;2023-01-16T07:53:20;17.60;43.30
76789;DHT22;65740;52.464;13.446;2023-01-16T07:55:49;17.60;43.20
76789;DHT22;65740;52.464;13.446;2023-01-16T07:58:15;17.50;43.20
76789;DHT22;65740;52.464;13.446;2023-01-16T08:00:41;17.60;43.40
76789;DHT22;65740;52.464;13.446;2023-01-16T08:03:06;17.60;43.20
76789;DHT22;65740;52.464;13.446;2023-01-16T08:05:32;17.60;43.20
76789;DHT22;65740;52.464;13.446;2023-01-16T08:07:58;17.60;43.30
76789;DHT22;65740;52.464;13.446;2023-01-16T08:10:23;17.60;43.20
76789;DHT22;65740;52.464;13.446;2023-01-16T08:12:49;17.60;43.10
76789;DHT22;65740;52.464;13.446;2023-01-16T08:15:14;17.50;43.30
76789;DHT22;65740;52.464;13.446;2023-01-16T08:17:40;17.50;43.20
76789;DHT22;65740;52.464;13.446;2023-01-16T08:20:07;17.50;43.20
76789;DHT22;65740;52.464;13.446;2023-01-16T08:22:34;17.50;43.10
76789;DHT22;65740;52.464;13.446;2023-01-16T08:25:00;17.50;43.20
76789;DHT22;65740;52.464;13.446;2023-01-16T08:27:26;17.50;43.20
76789;DHT22;65740;52.464;13.446;2023-01-16T08:29:51;17.50;43.20
76789;DHT22;65740;52.464;13.446;2023-01-16T08:32:17;17.60;43.40
76789;DHT22;65740;52.464;13.446;2023-01-16T08:34:43;17.50;43.20
76789;DHT22;65740;52.464;13.446;2023-01-16T08:37:09;17.60;43.30
76789;DHT22;65740;52.464;13.446;2023-01-16T08:39:36;17.50;43.10
76789;DHT22;65740;52.464;13.446;2023-01-16T08:42:02;17.50;43.20
76789;DHT22;65740;52.464;13.446;2023-01-16T08:44:46;17.60;43.20
76789;DHT22;65740;52.464;13.446;2023-01-16T08:47:31;17.60;43.30
76789;DHT22;65740;52.464;13.446;2023-01-16T08:50:19;17.60;43.20
76789;DHT22;65740;52.464;13.446;2023-01-16T08:53:04;17.60;43.10
76789;DHT22;65740;52.464;13.446;2023-01-16T08:55:30;17.60;43.10
76789;DHT22;65740;52.464;13.446;2023-01-16T08:57:56;17.60;43.20
76789;DHT22;65740;52.464;13.446;2023-01-16T09:00:24;17.60;43.20
76789;DHT22;65740;52.464;13.446;2023-01-16T09:02:50;17.60;43.10
76789;DHT22;65740;52.464;13.446;2023-01-16T09:05:16;17.60;43.20
76789;DHT22;65740;52.464;13.446;2023-01-16T09:07:42;17.60;43.20
76789;DHT22;65740;52.464;13.446;2023-01-16T09:10:08;17.60;43.20
76789;DHT22;65740;52.464;13.446;2023-01-16T09:12:34;17.60;43.20
76789;DHT22;65740;52.464;13.446;2023-01-16T09:15:18;17.60;43.20
76789;DHT22;65740;52.464;13.446;2023-01-16T09:17:43;17.60;43.30
76789;DHT22;65740;52.464;13.446;2023-01-16T09:20:10;17.60;43.20
76789;DHT22;65740;52.464;13.446;2023-01-16T09:22:35;17.60;43.10
76789;DHT22;65740;52.464;13.446;2023-01-16T09:25:01;17.60;43.30
76789;DHT22;65740;52.464;13.446;2023-01-16T09:27:27;17.60;43.20
76789;DHT22;65740;52.464;13.446;2023-01-16T09:29:53;17.60;43.90
76789;DHT22;65740;52.464;13.446;2023-01-16T09:32:19;17.60;43.30
76789;DHT22;65740;52.464;13.446;2023-01-16T09:34:45;17.60;43.30
76789;DHT22;65740;52.464;13.446;2023-01-16T09:37:11;17.70;43.40
76789;DHT22;65740;52.464;13.446;2023-01-16T09:39:37;17.60;43.40
76789;DHT22;65740;52.464;13.446;2023-01-16T09:45:12;17.70;43.40
76789;DHT22;65740;52.464;13.446;2023-01-16T09:47:40;17.70;43.50
76789;DHT22;65740;52.464;13.446;2023-01-16T09:50:13;17.60;43.40
76789;DHT22;65740;52.464;13.446;2023-01-16T09:52:45;17.70;43.40
76789;DHT22;65740;52.464;13.446;2023-01-16T09:55:45;17.70;43.40
76789;DHT22;65740;52.464;13.446;2023-01-16T09:58:30;17.70;43.50
76789;DHT22;65740;52.464;13.446;2023-01-16T10:03:31;17.70;43.50
76789;DHT22;65740;52.464;13.446;2023-01-16T10:11:33;17.70;43.50
76789;DHT22;65740;52.464;13.446;2023-01-16T10:14:25;17.80;43.60
76789;DHT22;65740;52.464;13.446;2023-01-16T10:28:31;17.80;43.50
76789;DHT22;65740;52.464;13.446;2023-01-16T10:31:05;17.80;43.40
76789;DHT22;65740;52.464;13.446;2023-01-16T10:34:15;17.90;43.60
76789;DHT22;65740;52.464;13.446;2023-01-16T10:36:46;17.90;43.60
76789;DHT22;65740;52.464;13.446;2023-01-16T10:39:15;17.90;43.60
76789;DHT22;65740;52.464;13.446;2023-01-16T10:41:47;18.00;43.70
76789;DHT22;65740;52.464;13.446;2023-01-16T10:47:18;18.00;43.80
76789;DHT22;65740;52.464;13.446;2023-01-16T10:50:03;18.10;43.90
76789;DHT22;65740;52.464;13.446;2023-01-16T10:52:30;18.10;44.00
76789;DHT22;65740;52.464;13.446;2023-01-16T10:54:57;18.10;44.00
76789;DHT22;65740;52.464;13.446;2023-01-16T10:57:24;18.10;44.00
76789;DHT22;65740;52.464;13.446;2023-01-16T10:59:52;18.20;44.10
76789;DHT22;65740;52.464;13.446;2023-01-16T11:02:30;18.20;44.10
76789;DHT22;65740;52.464;13.446;2023-01-16T11:04:56;18.20;44.10
76789;DHT22;65740;52.464;13.446;2023-01-16T11:07:22;18.20;44.10
76789;DHT22;65740;52.464;13.446;2023-01-16T11:09:51;18.30;44.20
76789;DHT22;65740;52.464;13.446;2023-01-16T11:12:28;18.30;44.20
76789;DHT22;65740;52.464;13.446;2023-01-16T11:15:22;18.30;44.30
76789;DHT22;65740;52.464;13.446;2023-01-16T11:18:28;18.40;44.50
76789;DHT22;65740;52.464;13.446;2023-01-16T11:20:56;18.40;44.70
76789;DHT22;65740;52.464;13.446;2023-01-16T11:23:25;18.40;44.90
76789;DHT22;65740;52.464;13.446;2023-01-16T11:25:54;18.40;45.20
76789;DHT22;65740;52.464;13.446;2023-01-16T11:28:26;18.50;45.30
76789;DHT22;65740;52.464;13.446;2023-01-16T11:30:55;18.50;45.30
76789;DHT22;65740;52.464;13.446;2023-01-16T11:33:26;18.50;45.30
76789;DHT22;65740;52.464;13.446;2023-01-16T11:36:01;18.60;45.40
76789;DHT22;65740;52.464;13.446;2023-01-16T11:38:31;18.60;45.40
76789;DHT22;65740;52.464;13.446;2023-01-16T11:41:00;18.60;45.40
76789;DHT22;65740;52.464;13.446;2023-01-16T11:43:27;18.70;45.50
76789;DHT22;65740;52.464;13.446;2023-01-16T11:49:23;18.70;45.50
76789;DHT22;65740;52.464;13.446;2023-01-16T11:51:52;18.70;45.50
76789;DHT22;65740;52.464;13.446;2023-01-16T11:54:27;18.70;45.50
76789;DHT22;65740;52.464;13.446;2023-01-16T11:59:46;18.80;46.20
76789;DHT22;65740;52.464;13.446;2023-01-16T12:02:27;18.80;46.10
76789;DHT22;65740;52.464;13.446;2023-01-16T12:05:18;18.80;46.10
76789;DHT22;65740;52.464;13.446;2023-01-16T12:14:40;18.90;47.40
76789;DHT22;65740;52.464;13.446;2023-01-16T12:20:13;18.90;47.30
76789;DHT22;65740;52.464;13.446;2023-01-16T12:28:24;19.00;50.60
76789;DHT22;65740;52.464;13.446;2023-01-16T12:37:21;18.70;50.00
76789;DHT22;65740;52.464;13.446;2023-01-16T12:42:58;18.80;48.70
76789;DHT22;65740;52.464;13.446;2023-01-16T12:46:01;18.90;49.80
76789;DHT22;65740;52.464;13.446;2023-01-16T12:48:46;18.90;50.50
76789;DHT22;65740;52.464;13.446;2023-01-16T12:51:42;18.90;49.70
76789;DHT22;65740;52.464;13.446;2023-01-16T13:00:28;19.00;49.60
76789;DHT22;65740;52.464;13.446;2023-01-16T13:05:25;19.00;49.40
76789;DHT22;65740;52.464;13.446;2023-01-16T13:08:18;19.10;49.10
76789;DHT22;65740;52.464;13.446;2023-01-16T13:10:49;19.10;48.90
76789;DHT22;65740;52.464;13.446;2023-01-16T13:13:39;19.10;49.00
76789;DHT22;65740;52.464;13.446;2023-01-16T13:16:14;19.20;48.70
76789;DHT22;65740;52.464;13.446;2023-01-16T13:21:33;19.30;48.40
76789;DHT22;65740;52.464;13.446;2023-01-16T13:24:14;19.30;48.30
76789;DHT22;65740;52.464;13.446;2023-01-16T13:26:51;19.40;48.20
76789;DHT22;65740;52.464;13.446;2023-01-16T13:29:28;19.40;48.10
76789;DHT22;65740;52.464;13.446;2023-01-16T13:32:09;19.50;48.00
76789;DHT22;65740;52.464;13.446;2023-01-16T13:34:44;19.50;48.10
76789;DHT22;65740;52.464;13.446;2023-01-16T13:40:13;19.50;48.80
76789;DHT22;65740;52.464;13.446;2023-01-16T13:42:52;19.50;48.20
76789;DHT22;65740;52.464;13.446;2023-01-16T13:45:31;19.50;48.20
76789;DHT22;65740;52.464;13.446;2023-01-16T13:48:29;19.50;48.20
76789;DHT22;65740;52.464;13.446;2023-01-16T13:51:01;19.50;48.30
76789;DHT22;65740;52.464;13.446;2023-01-16T13:53:32;19.60;48.30
76789;DHT22;65740;52.464;13.446;2023-01-16T13:56:15;19.60;48.30
76789;DHT22;65740;52.464;13.446;2023-01-16T13:58:45;19.50;48.20
76789;DHT22;65740;52.464;13.446;2023-01-16T14:01:35;19.60;48.20
76789;DHT22;65740;52.464;13.446;2023-01-16T14:09:23;19.60;48.20
76789;DHT22;65740;52.464;13.446;2023-01-16T14:11:59;19.70;48.20
76789;DHT22;65740;52.464;13.446;2023-01-16T14:17:13;19.70;48.30
76789;DHT22;65740;52.464;13.446;2023-01-16T14:22:22;19.70;48.40
76789;DHT22;65740;52.464;13.446;2023-01-16T14:24:55;19.70;48.30
76789;DHT22;65740;52.464;13.446;2023-01-16T14:27:28;19.80;48.10
76789;DHT22;65740;52.464;13.446;2023-01-16T14:29:59;19.80;47.90
76789;DHT22;65740;52.464;13.446;2023-01-16T14:32:28;19.80;48.10
76789;DHT22;65740;52.464;13.446;2023-01-16T14:35:03;19.80;47.90
76789;DHT22;65740;52.464;13.446;2023-01-16T14:37:36;19.90;47.70
76789;DHT22;65740;52.464;13.446;2023-01-16T14:40:20;19.90;47.60
76789;DHT22;65740;52.464;13.446;2023-01-16T14:42:55;19.90;47.70
76789;DHT22;65740;52.464;13.446;2023-01-16T14:46:49;19.80;47.80
76789;DHT22;65740;52.464;13.446;2023-01-16T14:49:44;19.90;47.80
76789;DHT22;65740;52.464;13.446;2023-01-16T14:58:32;19.90;48.00
76789;DHT22;65740;52.464;13.446;2023-01-16T15:01:00;20.10;47.60
76789;DHT22;65740;52.464;13.446;2023-01-16T15:03:46;20.20;47.40
76789;DHT22;65740;52.464;13.446;2023-01-16T15:06:14;20.30;47.30
76789;DHT22;65740;52.464;13.446;2023-01-16T15:08:40;20.30;47.30
76789;DHT22;65740;52.464;13.446;2023-01-16T15:11:24;20.30;47.20
76789;DHT22;65740;52.464;13.446;2023-01-16T15:14:17;20.30;47.30
76789;DHT22;65740;52.464;13.446;2023-01-16T15:22:51;20.30;47.60
76789;DHT22;65740;52.464;13.446;2023-01-16T15:28:35;20.30;48.00
76789;DHT22;65740;52.464;13.446;2023-01-16T15:33:40;20.40;47.90
76789;DHT22;65740;52.464;13.446;2023-01-16T15:36:52;20.30;47.70
76789;DHT22;65740;52.464;13.446;2023-01-16T15:42:01;20.30;48.60
76789;DHT22;65740;52.464;13.446;2023-01-16T15:44:47;20.30;48.10
76789;DHT22;65740;52.464;13.446;2023-01-16T15:50:59;20.30;48.10
76789;DHT22;65740;52.464;13.446;2023-01-16T15:53:31;20.40;48.00
76789;DHT22;65740;52.464;13.446;2023-01-16T15:56:17;20.40;48.10
76789;DHT22;65740;52.464;13.446;2023-01-16T15:58:43;20.40;48.10
76789;DHT22;65740;52.464;13.446;2023-01-16T16:01:13;20.40;48.00
76789;DHT22;65740;52.464;13.446;2023-01-16T16:03:44;20.40;48.10
76789;DHT22;65740;52.464;13.446;2023-01-16T16:06:13;20.40;48.10
76789;DHT22;65740;52.464;13.446;2023-01-16T16:08:45;20.40;48.10
76789;DHT22;65740;52.464;13.446;2023-01-16T16:11:23;20.40;48.10
76789;DHT22;65740;52.464;13.446;2023-01-16T16:31:33;20.40;47.90
76789;DHT22;65740;52.464;13.446;2023-01-16T16:34:02;20.40;48.00
76789;DHT22;65740;52.464;13.446;2023-01-16T16:36:44;20.40;47.90
76789;DHT22;65740;52.464;13.446;2023-01-16T16:41:51;20.40;47.70
76789;DHT22;65740;52.464;13.446;2023-01-16T16:44:44;20.40;47.60
76789;DHT22;65740;52.464;13.446;2023-01-16T16:47:31;20.40;47.40
76789;DHT22;65740;52.464;13.446;2023-01-16T16:49:58;20.50;47.60
76789;DHT22;65740;52.464;13.446;2023-01-16T16:52:33;20.50;47.30
76789;DHT22;65740;52.464;13.446;2023-01-16T16:55:03;20.50;47.50
76789;DHT22;65740;52.464;13.446;2023-01-16T16:57:49;20.50;47.50
76789;DHT22;65740;52.464;13.446;2023-01-16T17:00:17;20.50;47.50
76789;DHT22;65740;52.464;13.446;2023-01-16T17:02:46;20.50;47.20
76789;DHT22;65740;52.464;13.446;2023-01-16T17:05:13;20.50;47.20
76789;DHT22;65740;52.464;13.446;2023-01-16T17:07:41;20.50;47.10
76789;DHT22;65740;52.464;13.446;2023-01-16T17:10:14;20.50;47.10
76789;DHT22;65740;52.464;13.446;2023-01-16T17:12:40;20.40;47.00
76789;DHT22;65740;52.464;13.446;2023-01-16T17:15:07;20.40;47.00
76789;DHT22;65740;52.464;13.446;2023-01-16T17:17:35;20.40;47.00
76789;DHT22;65740;52.464;13.446;2023-01-16T17:20:00;20.40;47.10
76789;DHT22;65740;52.464;13.446;2023-01-16T17:22:27;20.30;46.90
76789;DHT22;65740;52.464;13.446;2023-01-16T17:24:52;20.30;46.90
76789;DHT22;65740;52.464;13.446;2023-01-16T17:27:19;20.30;46.90
76789;DHT22;65740;52.464;13.446;2023-01-16T17:29:45;20.30;46.90
76789;DHT22;65740;52.464;13.446;2023-01-16T17:32:28;20.30;46.90
76789;DHT22;65740;52.464;13.446;2023-01-16T17:34:57;20.30;46.90
76789;DHT22;65740;52.464;13.446;2023-01-16T17:37:23;20.30;46.90
76789;DHT22;65740;52.464;13.446;2023-01-16T17:39:49;20.30;46.90
76789;DHT22;65740;52.464;13.446;2023-01-16T17:42:15;20.30;46.90
76789;DHT22;65740;52.464;13.446;2023-01-16T17:44:40;20.30;46.90
76789;DHT22;65740;52.464;13.446;2023-01-16T17:47:25;20.20;46.80
76789;DHT22;65740;52.464;13.446;2023-01-16T17:49:52;20.20;46.80
76789;DHT22;65740;52.464;13.446;2023-01-16T17:52:36;20.20;46.80
76789;DHT22;65740;52.464;13.446;2023-01-16T17:55:02;20.30;46.90
76789;DHT22;65740;52.464;13.446;2023-01-16T17:57:47;20.20;46.80
76789;DHT22;65740;52.464;13.446;2023-01-16T18:00:13;20.20;46.80
76789;DHT22;65740;52.464;13.446;2023-01-16T18:02:38;20.20;46.80
76789;DHT22;65740;52.464;13.446;2023-01-16T18:05:05;20.20;46.80
76789;DHT22;65740;52.464;13.446;2023-01-16T18:07:32;20.20;46.80
76789;DHT22;65740;52.464;13.446;2023-01-16T18:09:58;20.20;46.80
76789;DHT22;65740;52.464;13.446;2023-01-16T18:12:23;20.20;46.80
76789;DHT22;65740;52.464;13.446;2023-01-16T18:15:08;20.20;46.80
76789;DHT22;65740;52.464;13.446;2023-01-16T18:17:52;20.20;46.80
76789;DHT22;65740;52.464;13.446;2023-01-16T18:22:45;20.60;46.10
76789;DHT22;65740;52.464;13.446;2023-01-16T18:25:10;20.60;45.60
76789;DHT22;65740;52.464;13.446;2023-01-16T18:27:36;20.60;44.80
76789;DHT22;65740;52.464;13.446;2023-01-16T18:30:03;20.50;45.00
76789;DHT22;65740;52.464;13.446;2023-01-16T18:32:28;20.50;45.10
76789;DHT22;65740;52.464;13.446;2023-01-16T18:34:59;20.40;45.00
76789;DHT22;65740;52.464;13.446;2023-01-16T18:37:39;20.40;45.60
76789;DHT22;65740;52.464;13.446;2023-01-16T18:40:13;20.30;45.70
76789;DHT22;65740;52.464;13.446;2023-01-16T18:42:59;20.20;45.70